IAH weather

George Bush Intercontinental Houston Airport
Houston, Texas, United States

Public forecast

Using degrees Fahrenheit for public forecast. Weather courtesy of forecast.io.

METAR (pilot weather report)

Retrieved 2019/02/17 14:17 UTC (20 minutes ago):

KIAH 171417Z 35008KT 2 1/2SM BR BKN006 BKN012 OVC029 17/16 A2976 RMK AO2 SFC VIS 6 RAE09 P0001 T01670161

TAF (pilot weather forecast)

Retrieved 2019/02/17 12:45 UTC (2 hours ago):

TAF KIAH 171140Z 1712/1818 31008KT 3SM BR VCSH OVC004 FM171700 35010KT P6SM BKN015 BKN025 FM172100 35011KT P6SM BKN250 FM181200 04008KT P6SM SKC